Cleveland, Ohio
Traffic Map
Current Weather Conditions
Cleveland, Ohio
Clear
Clear
22°
Feels Like: 22°
Wind Chill: 22° Ceiling: Unl
Heat Index: 22° Visibility: 10mi
Dew Point: 18° Wind: 5mph
Humidity: 76% Direction: 210° (SSW)
Pressure: 30.15in Gusts: 0mph
Raw Report DataKBKL 051153Z 21004KT 10SM CLR 22/18 A3015 RMK AO2 SLP206 70008 T02220178 10239 20217 53017
Traffic Incident Summary
Active as of:
Severity:
Category:
InformationThere was an issue retrieving the traffic information for this location. Please try a different location or try again shortly.
Advertisements
Track Severe Weather on mobile